sensor_id;sensor_type;location;lat;lon;timestamp;P1;durP1;ratioP1;P2;durP2;ratioP2
63087;SDS011;49173;43.164;27.786;2023-07-31T00:01:47;5.20;;;1.73;;
63087;SDS011;49173;43.164;27.786;2023-07-31T00:04:13;4.28;;;1.60;;
63087;SDS011;49173;43.164;27.786;2023-07-31T00:06:39;3.72;;;1.63;;
63087;SDS011;49173;43.164;27.786;2023-07-31T00:09:05;3.20;;;1.63;;
63087;SDS011;49173;43.164;27.786;2023-07-31T00:11:30;4.57;;;1.70;;
63087;SDS011;49173;43.164;27.786;2023-07-31T00:13:56;2.70;;;1.60;;
63087;SDS011;49173;43.164;27.786;2023-07-31T00:16:22;4.15;;;1.60;;
63087;SDS011;49173;43.164;27.786;2023-07-31T00:18:48;2.03;;;1.40;;
63087;SDS011;49173;43.164;27.786;2023-07-31T00:21:14;3.38;;;1.60;;
63087;SDS011;49173;43.164;27.786;2023-07-31T00:23:39;5.57;;;1.90;;
63087;SDS011;49173;43.164;27.786;2023-07-31T00:26:05;3.42;;;1.85;;
63087;SDS011;49173;43.164;27.786;2023-07-31T00:28:31;2.75;;;1.60;;
63087;SDS011;49173;43.164;27.786;2023-07-31T00:30:56;2.63;;;1.50;;
63087;SDS011;49173;43.164;27.786;2023-07-31T00:33:22;4.10;;;1.80;;
63087;SDS011;49173;43.164;27.786;2023-07-31T00:35:48;4.30;;;1.67;;
63087;SDS011;49173;43.164;27.786;2023-07-31T00:38:14;2.80;;;1.70;;
63087;SDS011;49173;43.164;27.786;2023-07-31T00:40:39;4.00;;;1.90;;
63087;SDS011;49173;43.164;27.786;2023-07-31T00:43:05;3.80;;;1.55;;
63087;SDS011;49173;43.164;27.786;2023-07-31T00:45:31;4.35;;;1.67;;
63087;SDS011;49173;43.164;27.786;2023-07-31T00:47:58;3.25;;;1.90;;
63087;SDS011;49173;43.164;27.786;2023-07-31T00:50:24;3.97;;;1.83;;
63087;SDS011;49173;43.164;27.786;2023-07-31T00:52:50;3.42;;;1.60;;
63087;SDS011;49173;43.164;27.786;2023-07-31T00:55:17;3.08;;;1.80;;
63087;SDS011;49173;43.164;27.786;2023-07-31T00:57:43;4.43;;;1.73;;
63087;SDS011;49173;43.164;27.786;2023-07-31T01:00:11;3.38;;;1.65;;
63087;SDS011;49173;43.164;27.786;2023-07-31T01:02:37;3.15;;;1.80;;
63087;SDS011;49173;43.164;27.786;2023-07-31T01:05:03;2.30;;;1.45;;
63087;SDS011;49173;43.164;27.786;2023-07-31T01:07:49;4.50;;;1.80;;
63087;SDS011;49173;43.164;27.786;2023-07-31T01:10:23;2.83;;;1.77;;
63087;SDS011;49173;43.164;27.786;2023-07-31T01:12:55;3.28;;;1.80;;
63087;SDS011;49173;43.164;27.786;2023-07-31T01:15:23;4.32;;;1.67;;
63087;SDS011;49173;43.164;27.786;2023-07-31T01:17:48;4.15;;;2.00;;
63087;SDS011;49173;43.164;27.786;2023-07-31T01:20:18;3.78;;;2.10;;
63087;SDS011;49173;43.164;27.786;2023-07-31T01:28:07;5.53;;;1.75;;
63087;SDS011;49173;43.164;27.786;2023-07-31T01:30:45;2.95;;;1.60;;
63087;SDS011;49173;43.164;27.786;2023-07-31T01:33:14;2.55;;;1.42;;
63087;SDS011;49173;43.164;27.786;2023-07-31T01:35:42;3.35;;;1.60;;
63087;SDS011;49173;43.164;27.786;2023-07-31T01:38:10;3.40;;;1.52;;
63087;SDS011;49173;43.164;27.786;2023-07-31T01:40:36;3.72;;;1.80;;
63087;SDS011;49173;43.164;27.786;2023-07-31T01:43:02;5.95;;;1.67;;
63087;SDS011;49173;43.164;27.786;2023-07-31T01:45:29;3.33;;;2.08;;
63087;SDS011;49173;43.164;27.786;2023-07-31T01:47:54;4.30;;;1.83;;
63087;SDS011;49173;43.164;27.786;2023-07-31T01:50:20;5.45;;;2.00;;
63087;SDS011;49173;43.164;27.786;2023-07-31T01:52:46;3.97;;;1.52;;
63087;SDS011;49173;43.164;27.786;2023-07-31T01:55:11;3.03;;;1.70;;
63087;SDS011;49173;43.164;27.786;2023-07-31T01:57:37;3.08;;;1.92;;
63087;SDS011;49173;43.164;27.786;2023-07-31T02:00:03;3.20;;;1.67;;
63087;SDS011;49173;43.164;27.786;2023-07-31T02:02:30;2.53;;;1.83;;
63087;SDS011;49173;43.164;27.786;2023-07-31T02:04:56;2.80;;;1.83;;
63087;SDS011;49173;43.164;27.786;2023-07-31T02:07:22;3.10;;;1.90;;
63087;SDS011;49173;43.164;27.786;2023-07-31T02:09:48;4.25;;;1.90;;
63087;SDS011;49173;43.164;27.786;2023-07-31T02:12:14;3.55;;;1.88;;
63087;SDS011;49173;43.164;27.786;2023-07-31T02:14:40;4.85;;;2.10;;
63087;SDS011;49173;43.164;27.786;2023-07-31T02:17:06;3.63;;;1.90;;
63087;SDS011;49173;43.164;27.786;2023-07-31T02:19:32;4.05;;;1.88;;
63087;SDS011;49173;43.164;27.786;2023-07-31T02:21:58;6.00;;;1.95;;
63087;SDS011;49173;43.164;27.786;2023-07-31T02:24:24;4.43;;;1.92;;
63087;SDS011;49173;43.164;27.786;2023-07-31T02:26:50;4.32;;;1.80;;
63087;SDS011;49173;43.164;27.786;2023-07-31T02:29:16;2.85;;;1.80;;
63087;SDS011;49173;43.164;27.786;2023-07-31T02:31:41;2.80;;;1.65;;
63087;SDS011;49173;43.164;27.786;2023-07-31T02:34:07;3.78;;;1.88;;
63087;SDS011;49173;43.164;27.786;2023-07-31T02:36:33;2.55;;;1.50;;
63087;SDS011;49173;43.164;27.786;2023-07-31T02:38:58;3.90;;;1.80;;
63087;SDS011;49173;43.164;27.786;2023-07-31T02:41:24;3.20;;;1.83;;
63087;SDS011;49173;43.164;27.786;2023-07-31T02:43:50;3.22;;;1.50;;
63087;SDS011;49173;43.164;27.786;2023-07-31T02:46:16;4.00;;;1.70;;
63087;SDS011;49173;43.164;27.786;2023-07-31T02:48:41;3.67;;;1.80;;
63087;SDS011;49173;43.164;27.786;2023-07-31T02:51:07;4.15;;;1.40;;
63087;SDS011;49173;43.164;27.786;2023-07-31T02:53:33;4.30;;;1.67;;
63087;SDS011;49173;43.164;27.786;2023-07-31T02:55:58;3.00;;;1.55;;
63087;SDS011;49173;43.164;27.786;2023-07-31T02:58:24;2.30;;;1.60;;
63087;SDS011;49173;43.164;27.786;2023-07-31T03:00:50;5.43;;;1.92;;
63087;SDS011;49173;43.164;27.786;2023-07-31T03:03:15;3.25;;;2.10;;
63087;SDS011;49173;43.164;27.786;2023-07-31T03:05:41;3.00;;;1.65;;
63087;SDS011;49173;43.164;27.786;2023-07-31T03:08:07;3.63;;;1.60;;
63087;SDS011;49173;43.164;27.786;2023-07-31T03:10:33;4.68;;;1.70;;
63087;SDS011;49173;43.164;27.786;2023-07-31T03:12:58;2.40;;;1.52;;
63087;SDS011;49173;43.164;27.786;2023-07-31T03:15:24;3.90;;;1.60;;
63087;SDS011;49173;43.164;27.786;2023-07-31T03:17:50;2.85;;;1.60;;
63087;SDS011;49173;43.164;27.786;2023-07-31T03:20:15;6.53;;;2.90;;
63087;SDS011;49173;43.164;27.786;2023-07-31T03:22:41;6.00;;;3.60;;
63087;SDS011;49173;43.164;27.786;2023-07-31T03:25:07;8.27;;;3.10;;
63087;SDS011;49173;43.164;27.786;2023-07-31T03:27:35;3.58;;;2.38;;
63087;SDS011;49173;43.164;27.786;2023-07-31T03:30:02;2.97;;;1.98;;
63087;SDS011;49173;43.164;27.786;2023-07-31T03:32:28;3.00;;;2.03;;
63087;SDS011;49173;43.164;27.786;2023-07-31T03:34:54;4.70;;;2.40;;
63087;SDS011;49173;43.164;27.786;2023-07-31T03:37:20;3.78;;;2.28;;
63087;SDS011;49173;43.164;27.786;2023-07-31T03:39:45;4.82;;;2.20;;
63087;SDS011;49173;43.164;27.786;2023-07-31T03:42:11;3.17;;;2.28;;
63087;SDS011;49173;43.164;27.786;2023-07-31T03:44:37;3.95;;;2.63;;
63087;SDS011;49173;43.164;27.786;2023-07-31T03:47:03;7.18;;;2.78;;
63087;SDS011;49173;43.164;27.786;2023-07-31T03:49:29;3.50;;;2.15;;
63087;SDS011;49173;43.164;27.786;2023-07-31T03:51:55;4.40;;;2.00;;
63087;SDS011;49173;43.164;27.786;2023-07-31T03:54:21;7.15;;;2.20;;
63087;SDS011;49173;43.164;27.786;2023-07-31T03:56:47;7.40;;;3.17;;
63087;SDS011;49173;43.164;27.786;2023-07-31T03:59:13;6.18;;;3.25;;
63087;SDS011;49173;43.164;27.786;2023-07-31T04:01:38;5.75;;;3.25;;
63087;SDS011;49173;43.164;27.786;2023-07-31T04:04:04;10.55;;;4.57;;
63087;SDS011;49173;43.164;27.786;2023-07-31T04:06:30;8.25;;;4.85;;
63087;SDS011;49173;43.164;27.786;2023-07-31T04:08:56;9.70;;;5.18;;
63087;SDS011;49173;43.164;27.786;2023-07-31T04:11:22;12.10;;;5.15;;
63087;SDS011;49173;43.164;27.786;2023-07-31T04:13:47;7.75;;;4.68;;
63087;SDS011;49173;43.164;27.786;2023-07-31T04:16:13;7.55;;;4.43;;
63087;SDS011;49173;43.164;27.786;2023-07-31T04:18:39;6.57;;;3.53;;
63087;SDS011;49173;43.164;27.786;2023-07-31T04:21:04;4.82;;;2.35;;
63087;SDS011;49173;43.164;27.786;2023-07-31T04:23:30;3.85;;;2.35;;
63087;SDS011;49173;43.164;27.786;2023-07-31T04:25:56;5.20;;;2.92;;
63087;SDS011;49173;43.164;27.786;2023-07-31T04:28:21;7.13;;;3.70;;
63087;SDS011;49173;43.164;27.786;2023-07-31T04:30:47;6.82;;;3.58;;
63087;SDS011;49173;43.164;27.786;2023-07-31T04:33:13;7.90;;;3.88;;
63087;SDS011;49173;43.164;27.786;2023-07-31T04:35:39;4.25;;;2.78;;
63087;SDS011;49173;43.164;27.786;2023-07-31T04:38:04;4.38;;;2.30;;
63087;SDS011;49173;43.164;27.786;2023-07-31T04:40:32;5.43;;;2.08;;
63087;SDS011;49173;43.164;27.786;2023-07-31T04:42:58;5.57;;;2.40;;
63087;SDS011;49173;43.164;27.786;2023-07-31T04:45:23;4.47;;;2.60;;
63087;SDS011;49173;43.164;27.786;2023-07-31T04:47:49;6.90;;;3.08;;
63087;SDS011;49173;43.164;27.786;2023-07-31T04:50:15;4.88;;;3.05;;
63087;SDS011;49173;43.164;27.786;2023-07-31T04:52:41;7.43;;;3.00;;
63087;SDS011;49173;43.164;27.786;2023-07-31T04:55:06;6.65;;;2.30;;
63087;SDS011;49173;43.164;27.786;2023-07-31T04:57:32;4.50;;;2.20;;
63087;SDS011;49173;43.164;27.786;2023-07-31T04:59:58;3.22;;;1.73;;
63087;SDS011;49173;43.164;27.786;2023-07-31T05:02:24;3.38;;;2.05;;
63087;SDS011;49173;43.164;27.786;2023-07-31T05:04:50;3.67;;;1.90;;
63087;SDS011;49173;43.164;27.786;2023-07-31T05:07:15;4.32;;;2.15;;
63087;SDS011;49173;43.164;27.786;2023-07-31T05:09:42;4.20;;;2.20;;
63087;SDS011;49173;43.164;27.786;2023-07-31T05:12:08;9.57;;;3.15;;
63087;SDS011;49173;43.164;27.786;2023-07-31T05:14:34;6.93;;;2.78;;
63087;SDS011;49173;43.164;27.786;2023-07-31T05:16:59;6.75;;;3.10;;
63087;SDS011;49173;43.164;27.786;2023-07-31T05:19:25;6.43;;;3.08;;
63087;SDS011;49173;43.164;27.786;2023-07-31T05:21:51;4.55;;;3.08;;
63087;SDS011;49173;43.164;27.786;2023-07-31T05:24:16;9.18;;;2.70;;
63087;SDS011;49173;43.164;27.786;2023-07-31T05:26:42;6.63;;;3.05;;
63087;SDS011;49173;43.164;27.786;2023-07-31T05:29:08;6.25;;;2.83;;
63087;SDS011;49173;43.164;27.786;2023-07-31T05:31:34;6.60;;;2.58;;
63087;SDS011;49173;43.164;27.786;2023-07-31T05:34:00;4.47;;;2.20;;
63087;SDS011;49173;43.164;27.786;2023-07-31T05:36:25;4.43;;;2.42;;
63087;SDS011;49173;43.164;27.786;2023-07-31T05:38:51;4.22;;;2.40;;
63087;SDS011;49173;43.164;27.786;2023-07-31T05:41:17;5.72;;;2.20;;
63087;SDS011;49173;43.164;27.786;2023-07-31T05:43:43;3.33;;;2.22;;
63087;SDS011;49173;43.164;27.786;2023-07-31T05:46:09;3.60;;;2.30;;
63087;SDS011;49173;43.164;27.786;2023-07-31T05:48:37;3.75;;;2.00;;
63087;SDS011;49173;43.164;27.786;2023-07-31T05:51:03;3.83;;;2.20;;
63087;SDS011;49173;43.164;27.786;2023-07-31T05:53:28;3.28;;;2.10;;
63087;SDS011;49173;43.164;27.786;2023-07-31T05:55:55;7.40;;;2.50;;
63087;SDS011;49173;43.164;27.786;2023-07-31T05:58:21;4.03;;;2.38;;
63087;SDS011;49173;43.164;27.786;2023-07-31T06:00:46;7.28;;;2.10;;
63087;SDS011;49173;43.164;27.786;2023-07-31T06:03:13;4.75;;;2.10;;
63087;SDS011;49173;43.164;27.786;2023-07-31T06:05:39;4.78;;;2.20;;
63087;SDS011;49173;43.164;27.786;2023-07-31T06:08:04;4.25;;;2.00;;
63087;SDS011;49173;43.164;27.786;2023-07-31T06:10:30;4.18;;;2.25;;
63087;SDS011;49173;43.164;27.786;2023-07-31T06:12:57;4.75;;;2.28;;
63087;SDS011;49173;43.164;27.786;2023-07-31T06:15:22;3.13;;;1.98;;
63087;SDS011;49173;43.164;27.786;2023-07-31T06:17:48;3.42;;;2.35;;
63087;SDS011;49173;43.164;27.786;2023-07-31T06:20:14;3.13;;;2.30;;
63087;SDS011;49173;43.164;27.786;2023-07-31T06:22:43;4.35;;;2.10;;
63087;SDS011;49173;43.164;27.786;2023-07-31T06:25:08;5.15;;;2.90;;
63087;SDS011;49173;43.164;27.786;2023-07-31T06:27:35;4.13;;;2.70;;
63087;SDS011;49173;43.164;27.786;2023-07-31T06:30:02;4.95;;;2.53;;
63087;SDS011;49173;43.164;27.786;2023-07-31T06:32:28;4.05;;;2.60;;
63087;SDS011;49173;43.164;27.786;2023-07-31T06:34:54;5.45;;;2.80;;
63087;SDS011;49173;43.164;27.786;2023-07-31T06:37:19;6.38;;;2.88;;
63087;SDS011;49173;43.164;27.786;2023-07-31T06:39:45;4.25;;;2.80;;
63087;SDS011;49173;43.164;27.786;2023-07-31T06:42:11;5.13;;;3.25;;
63087;SDS011;49173;43.164;27.786;2023-07-31T06:44:36;5.15;;;3.10;;
63087;SDS011;49173;43.164;27.786;2023-07-31T06:47:02;7.15;;;3.80;;
63087;SDS011;49173;43.164;27.786;2023-07-31T06:49:28;4.97;;;3.30;;
63087;SDS011;49173;43.164;27.786;2023-07-31T06:51:54;10.75;;;4.55;;
63087;SDS011;49173;43.164;27.786;2023-07-31T06:54:19;6.93;;;3.85;;
63087;SDS011;49173;43.164;27.786;2023-07-31T06:56:45;16.10;;;7.20;;
63087;SDS011;49173;43.164;27.786;2023-07-31T06:59:11;15.73;;;6.28;;
63087;SDS011;49173;43.164;27.786;2023-07-31T07:01:36;7.25;;;5.75;;
63087;SDS011;49173;43.164;27.786;2023-07-31T07:04:02;11.27;;;6.35;;
63087;SDS011;49173;43.164;27.786;2023-07-31T07:06:28;10.27;;;7.43;;
63087;SDS011;49173;43.164;27.786;2023-07-31T07:08:54;12.65;;;6.55;;
63087;SDS011;49173;43.164;27.786;2023-07-31T07:11:20;12.57;;;6.90;;
63087;SDS011;49173;43.164;27.786;2023-07-31T07:13:46;11.82;;;5.38;;
63087;SDS011;49173;43.164;27.786;2023-07-31T07:16:12;10.88;;;5.20;;
63087;SDS011;49173;43.164;27.786;2023-07-31T07:18:37;12.02;;;5.10;;
63087;SDS011;49173;43.164;27.786;2023-07-31T07:21:03;9.52;;;5.53;;
63087;SDS011;49173;43.164;27.786;2023-07-31T07:23:30;8.57;;;5.90;;
63087;SDS011;49173;43.164;27.786;2023-07-31T07:25:56;13.77;;;5.32;;
63087;SDS011;49173;43.164;27.786;2023-07-31T07:28:22;9.73;;;5.50;;
63087;SDS011;49173;43.164;27.786;2023-07-31T07:30:52;7.10;;;4.93;;
63087;SDS011;49173;43.164;27.786;2023-07-31T07:33:21;7.07;;;4.15;;
63087;SDS011;49173;43.164;27.786;2023-07-31T07:35:47;6.18;;;4.70;;
63087;SDS011;49173;43.164;27.786;2023-07-31T07:38:13;8.45;;;4.57;;
63087;SDS011;49173;43.164;27.786;2023-07-31T07:40:40;9.45;;;4.63;;
63087;SDS011;49173;43.164;27.786;2023-07-31T07:43:08;7.10;;;4.53;;
63087;SDS011;49173;43.164;27.786;2023-07-31T07:45:34;10.20;;;5.13;;
63087;SDS011;49173;43.164;27.786;2023-07-31T07:48:01;8.65;;;4.93;;
63087;SDS011;49173;43.164;27.786;2023-07-31T07:50:27;5.68;;;4.32;;
63087;SDS011;49173;43.164;27.786;2023-07-31T07:52:57;10.57;;;4.40;;
63087;SDS011;49173;43.164;27.786;2023-07-31T07:55:26;9.75;;;4.13;;
63087;SDS011;49173;43.164;27.786;2023-07-31T07:57:53;6.07;;;4.00;;
63087;SDS011;49173;43.164;27.786;2023-07-31T08:00:28;6.10;;;3.50;;
63087;SDS011;49173;43.164;27.786;2023-07-31T08:02:57;7.05;;;3.50;;
63087;SDS011;49173;43.164;27.786;2023-07-31T08:05:29;7.68;;;3.88;;
63087;SDS011;49173;43.164;27.786;2023-07-31T08:08:00;7.53;;;3.72;;
63087;SDS011;49173;43.164;27.786;2023-07-31T08:10:28;7.07;;;4.28;;
63087;SDS011;49173;43.164;27.786;2023-07-31T08:12:57;6.63;;;3.90;;
63087;SDS011;49173;43.164;27.786;2023-07-31T08:15:28;6.85;;;4.13;;
63087;SDS011;49173;43.164;27.786;2023-07-31T08:17:59;5.15;;;3.97;;
63087;SDS011;49173;43.164;27.786;2023-07-31T08:20:28;5.45;;;3.88;;
63087;SDS011;49173;43.164;27.786;2023-07-31T08:22:59;6.38;;;3.60;;
63087;SDS011;49173;43.164;27.786;2023-07-31T08:27:54;11.05;;;3.40;;
63087;SDS011;49173;43.164;27.786;2023-07-31T08:30:23;5.90;;;3.20;;
63087;SDS011;49173;43.164;27.786;2023-07-31T08:32:57;7.72;;;3.50;;
63087;SDS011;49173;43.164;27.786;2023-07-31T08:35:25;4.72;;;3.00;;
63087;SDS011;49173;43.164;27.786;2023-07-31T08:37:56;4.30;;;3.03;;
63087;SDS011;49173;43.164;27.786;2023-07-31T08:40:26;4.60;;;2.92;;
63087;SDS011;49173;43.164;27.786;2023-07-31T08:42:58;4.18;;;3.25;;
63087;SDS011;49173;43.164;27.786;2023-07-31T08:45:28;5.82;;;3.10;;
63087;SDS011;49173;43.164;27.786;2023-07-31T08:47:55;4.72;;;3.30;;
63087;SDS011;49173;43.164;27.786;2023-07-31T08:50:26;4.90;;;3.30;;
63087;SDS011;49173;43.164;27.786;2023-07-31T08:52:58;6.57;;;3.35;;
63087;SDS011;49173;43.164;27.786;2023-07-31T08:55:30;5.47;;;3.10;;
63087;SDS011;49173;43.164;27.786;2023-07-31T08:58:00;4.90;;;2.97;;
63087;SDS011;49173;43.164;27.786;2023-07-31T09:00:34;4.85;;;3.20;;
63087;SDS011;49173;43.164;27.786;2023-07-31T09:03:03;3.83;;;2.83;;
63087;SDS011;49173;43.164;27.786;2023-07-31T09:05:39;4.32;;;3.13;;
63087;SDS011;49173;43.164;27.786;2023-07-31T09:08:20;5.25;;;2.70;;
63087;SDS011;49173;43.164;27.786;2023-07-31T09:10:52;5.78;;;2.80;;
63087;SDS011;49173;43.164;27.786;2023-07-31T09:13:21;5.20;;;3.35;;
63087;SDS011;49173;43.164;27.786;2023-07-31T09:15:51;4.45;;;3.00;;
63087;SDS011;49173;43.164;27.786;2023-07-31T09:18:23;6.03;;;3.22;;
63087;SDS011;49173;43.164;27.786;2023-07-31T09:21:00;5.10;;;2.90;;
63087;SDS011;49173;43.164;27.786;2023-07-31T09:26:32;4.30;;;2.90;;
63087;SDS011;49173;43.164;27.786;2023-07-31T09:29:06;4.72;;;2.83;;
63087;SDS011;49173;43.164;27.786;2023-07-31T09:31:46;3.92;;;3.25;;
63087;SDS011;49173;43.164;27.786;2023-07-31T09:34:16;5.45;;;3.17;;
63087;SDS011;49173;43.164;27.786;2023-07-31T09:36:47;3.80;;;3.22;;
63087;SDS011;49173;43.164;27.786;2023-07-31T09:39:16;4.60;;;3.13;;
63087;SDS011;49173;43.164;27.786;2023-07-31T09:41:47;4.93;;;3.33;;
63087;SDS011;49173;43.164;27.786;2023-07-31T09:44:20;4.53;;;2.97;;
63087;SDS011;49173;43.164;27.786;2023-07-31T09:47:21;5.22;;;2.78;;
63087;SDS011;49173;43.164;27.786;2023-07-31T09:49:51;4.05;;;2.95;;
63087;SDS011;49173;43.164;27.786;2023-07-31T09:52:20;4.43;;;2.90;;
63087;SDS011;49173;43.164;27.786;2023-07-31T09:54:54;4.50;;;2.90;;
63087;SDS011;49173;43.164;27.786;2023-07-31T09:57:23;4.40;;;2.85;;
63087;SDS011;49173;43.164;27.786;2023-07-31T09:59:56;3.97;;;3.10;;
63087;SDS011;49173;43.164;27.786;2023-07-31T10:02:35;5.18;;;3.40;;
63087;SDS011;49173;43.164;27.786;2023-07-31T10:05:10;5.57;;;3.53;;
63087;SDS011;49173;43.164;27.786;2023-07-31T10:07:56;5.30;;;3.05;;
63087;SDS011;49173;43.164;27.786;2023-07-31T10:10:26;5.40;;;3.08;;
63087;SDS011;49173;43.164;27.786;2023-07-31T10:12:57;5.57;;;3.00;;
63087;SDS011;49173;43.164;27.786;2023-07-31T10:15:30;4.20;;;3.10;;
63087;SDS011;49173;43.164;27.786;2023-07-31T10:18:02;6.32;;;3.50;;
63087;SDS011;49173;43.164;27.786;2023-07-31T10:20:34;3.97;;;3.08;;
63087;SDS011;49173;43.164;27.786;2023-07-31T10:23:10;5.38;;;2.83;;
63087;SDS011;49173;43.164;27.786;2023-07-31T10:25:41;7.05;;;3.30;;
63087;SDS011;49173;43.164;27.786;2023-07-31T10:28:13;5.50;;;3.75;;
63087;SDS011;49173;43.164;27.786;2023-07-31T10:30:45;9.88;;;3.80;;
63087;SDS011;49173;43.164;27.786;2023-07-31T10:33:15;4.78;;;3.60;;
63087;SDS011;49173;43.164;27.786;2023-07-31T10:35:42;13.00;;;3.90;;
63087;SDS011;49173;43.164;27.786;2023-07-31T10:38:11;4.35;;;3.60;;
63087;SDS011;49173;43.164;27.786;2023-07-31T10:40:40;5.93;;;3.55;;
63087;SDS011;49173;43.164;27.786;2023-07-31T10:45:50;5.82;;;3.17;;
63087;SDS011;49173;43.164;27.786;2023-07-31T10:48:21;5.03;;;3.78;;
63087;SDS011;49173;43.164;27.786;2023-07-31T10:51:00;5.03;;;3.45;;
63087;SDS011;49173;43.164;27.786;2023-07-31T10:53:32;4.47;;;3.33;;
63087;SDS011;49173;43.164;27.786;2023-07-31T10:56:03;4.10;;;3.50;;
63087;SDS011;49173;43.164;27.786;2023-07-31T10:58:41;5.50;;;3.42;;
63087;SDS011;49173;43.164;27.786;2023-07-31T11:01:25;5.00;;;3.63;;
63087;SDS011;49173;43.164;27.786;2023-07-31T11:04:23;7.53;;;3.42;;
63087;SDS011;49173;43.164;27.786;2023-07-31T11:06:57;7.83;;;4.27;;
63087;SDS011;49173;43.164;27.786;2023-07-31T11:09:31;7.30;;;3.83;;
63087;SDS011;49173;43.164;27.786;2023-07-31T11:11:59;4.97;;;3.50;;
63087;SDS011;49173;43.164;27.786;2023-07-31T11:14:28;11.00;;;3.55;;
63087;SDS011;49173;43.164;27.786;2023-07-31T11:16:57;6.07;;;3.47;;
63087;SDS011;49173;43.164;27.786;2023-07-31T11:19:31;4.80;;;3.40;;
63087;SDS011;49173;43.164;27.786;2023-07-31T11:22:06;3.88;;;3.10;;
63087;SDS011;49173;43.164;27.786;2023-07-31T11:24:36;4.47;;;3.30;;
63087;SDS011;49173;43.164;27.786;2023-07-31T11:27:07;5.45;;;3.30;;
63087;SDS011;49173;43.164;27.786;2023-07-31T11:29:36;7.63;;;3.78;;
63087;SDS011;49173;43.164;27.786;2023-07-31T11:32:02;7.28;;;4.28;;
63087;SDS011;49173;43.164;27.786;2023-07-31T11:34:29;4.85;;;4.00;;
63087;SDS011;49173;43.164;27.786;2023-07-31T11:36:58;11.10;;;7.57;;
63087;SDS011;49173;43.164;27.786;2023-07-31T11:39:32;12.00;;;7.60;;
63087;SDS011;49173;43.164;27.786;2023-07-31T11:42:01;9.98;;;6.40;;
63087;SDS011;49173;43.164;27.786;2023-07-31T11:44:42;23.88;;;11.82;;
63087;SDS011;49173;43.164;27.786;2023-07-31T11:47:15;20.35;;;13.43;;
63087;SDS011;49173;43.164;27.786;2023-07-31T11:49:47;23.08;;;13.32;;
63087;SDS011;49173;43.164;27.786;2023-07-31T11:52:15;19.38;;;12.45;;
63087;SDS011;49173;43.164;27.786;2023-07-31T11:54:49;15.27;;;9.27;;
63087;SDS011;49173;43.164;27.786;2023-07-31T11:57:18;14.85;;;10.93;;
63087;SDS011;49173;43.164;27.786;2023-07-31T11:59:49;21.23;;;12.15;;
63087;SDS011;49173;43.164;27.786;2023-07-31T12:02:17;21.10;;;12.63;;
63087;SDS011;49173;43.164;27.786;2023-07-31T12:04:52;16.90;;;13.40;;
63087;SDS011;49173;43.164;27.786;2023-07-31T12:07:17;16.33;;;12.73;;
63087;SDS011;49173;43.164;27.786;2023-07-31T12:09:52;20.40;;;14.52;;
63087;SDS011;49173;43.164;27.786;2023-07-31T12:12:25;17.65;;;13.98;;
63087;SDS011;49173;43.164;27.786;2023-07-31T12:14:54;15.73;;;9.13;;
63087;SDS011;49173;43.164;27.786;2023-07-31T12:17:46;16.85;;;9.98;;
63087;SDS011;49173;43.164;27.786;2023-07-31T12:20:13;12.73;;;5.63;;
63087;SDS011;49173;43.164;27.786;2023-07-31T12:22:42;6.88;;;3.38;;
63087;SDS011;49173;43.164;27.786;2023-07-31T12:25:16;5.38;;;3.20;;
63087;SDS011;49173;43.164;27.786;2023-07-31T12:27:46;6.43;;;2.90;;
63087;SDS011;49173;43.164;27.786;2023-07-31T12:30:26;8.77;;;3.00;;
63087;SDS011;49173;43.164;27.786;2023-07-31T12:33:04;5.15;;;2.97;;
63087;SDS011;49173;43.164;27.786;2023-07-31T12:35:46;6.13;;;3.08;;
63087;SDS011;49173;43.164;27.786;2023-07-31T12:38:35;5.93;;;2.95;;
63087;SDS011;49173;43.164;27.786;2023-07-31T12:41:04;3.15;;;2.70;;
63087;SDS011;49173;43.164;27.786;2023-07-31T12:43:35;6.13;;;3.10;;
63087;SDS011;49173;43.164;27.786;2023-07-31T12:46:06;4.30;;;3.33;;
63087;SDS011;49173;43.164;27.786;2023-07-31T12:48:36;5.07;;;2.90;;
63087;SDS011;49173;43.164;27.786;2023-07-31T12:51:03;3.83;;;2.90;;
63087;SDS011;49173;43.164;27.786;2023-07-31T12:53:30;3.85;;;3.03;;
63087;SDS011;49173;43.164;27.786;2023-07-31T12:55:56;4.25;;;3.08;;
63087;SDS011;49173;43.164;27.786;2023-07-31T12:58:27;3.45;;;2.88;;
63087;SDS011;49173;43.164;27.786;2023-07-31T13:03:22;3.97;;;2.90;;
63087;SDS011;49173;43.164;27.786;2023-07-31T13:05:51;3.65;;;2.80;;
63087;SDS011;49173;43.164;27.786;2023-07-31T13:10:46;4.47;;;3.22;;
63087;SDS011;49173;43.164;27.786;2023-07-31T13:13:15;5.60;;;2.83;;
63087;SDS011;49173;43.164;27.786;2023-07-31T13:15:46;3.97;;;2.72;;
63087;SDS011;49173;43.164;27.786;2023-07-31T13:18:15;4.35;;;2.78;;
63087;SDS011;49173;43.164;27.786;2023-07-31T13:20:46;3.85;;;2.65;;
63087;SDS011;49173;43.164;27.786;2023-07-31T13:23:21;3.60;;;3.10;;
63087;SDS011;49173;43.164;27.786;2023-07-31T13:25:50;4.10;;;2.95;;
63087;SDS011;49173;43.164;27.786;2023-07-31T13:28:16;10.18;;;2.92;;
63087;SDS011;49173;43.164;27.786;2023-07-31T13:30:47;3.75;;;3.00;;
63087;SDS011;49173;43.164;27.786;2023-07-31T13:33:13;4.35;;;3.03;;
63087;SDS011;49173;43.164;27.786;2023-07-31T13:35:45;5.13;;;3.40;;
63087;SDS011;49173;43.164;27.786;2023-07-31T13:38:20;5.13;;;3.17;;
63087;SDS011;49173;43.164;27.786;2023-07-31T13:43:15;6.18;;;3.15;;
63087;SDS011;49173;43.164;27.786;2023-07-31T13:45:53;4.00;;;2.90;;
63087;SDS011;49173;43.164;27.786;2023-07-31T13:48:21;4.05;;;3.03;;
63087;SDS011;49173;43.164;27.786;2023-07-31T13:50:54;5.65;;;3.38;;
63087;SDS011;49173;43.164;27.786;2023-07-31T13:53:20;3.30;;;3.00;;
63087;SDS011;49173;43.164;27.786;2023-07-31T13:55:46;4.00;;;3.05;;
63087;SDS011;49173;43.164;27.786;2023-07-31T13:58:18;4.07;;;3.10;;
63087;SDS011;49173;43.164;27.786;2023-07-31T14:00:47;3.53;;;2.97;;
63087;SDS011;49173;43.164;27.786;2023-07-31T14:03:12;3.67;;;3.03;;
63087;SDS011;49173;43.164;27.786;2023-07-31T14:05:38;5.07;;;3.22;;
63087;SDS011;49173;43.164;27.786;2023-07-31T14:08:04;3.33;;;2.90;;
63087;SDS011;49173;43.164;27.786;2023-07-31T14:10:35;4.43;;;3.03;;
63087;SDS011;49173;43.164;27.786;2023-07-31T14:15:35;4.00;;;2.60;;
63087;SDS011;49173;43.164;27.786;2023-07-31T14:18:02;5.03;;;3.20;;
63087;SDS011;49173;43.164;27.786;2023-07-31T14:20:30;5.15;;;3.47;;
63087;SDS011;49173;43.164;27.786;2023-07-31T14:22:57;5.07;;;3.45;;
63087;SDS011;49173;43.164;27.786;2023-07-31T14:25:29;4.53;;;3.30;;
63087;SDS011;49173;43.164;27.786;2023-07-31T14:28:00;4.90;;;3.38;;
63087;SDS011;49173;43.164;27.786;2023-07-31T14:30:26;4.50;;;3.22;;
63087;SDS011;49173;43.164;27.786;2023-07-31T14:32:52;3.50;;;2.90;;
63087;SDS011;49173;43.164;27.786;2023-07-31T14:35:18;4.30;;;3.05;;
63087;SDS011;49173;43.164;27.786;2023-07-31T14:37:44;4.03;;;3.17;;
63087;SDS011;49173;43.164;27.786;2023-07-31T14:40:13;3.88;;;3.25;;
63087;SDS011;49173;43.164;27.786;2023-07-31T14:42:39;3.88;;;3.00;;
63087;SDS011;49173;43.164;27.786;2023-07-31T14:45:08;3.85;;;2.63;;
63087;SDS011;49173;43.164;27.786;2023-07-31T14:47:35;4.75;;;2.80;;
63087;SDS011;49173;43.164;27.786;2023-07-31T14:50:02;3.55;;;2.83;;
63087;SDS011;49173;43.164;27.786;2023-07-31T14:52:31;4.38;;;2.75;;
63087;SDS011;49173;43.164;27.786;2023-07-31T14:54:58;2.80;;;2.20;;
63087;SDS011;49173;43.164;27.786;2023-07-31T14:57:29;5.20;;;2.80;;
63087;SDS011;49173;43.164;27.786;2023-07-31T14:59:58;3.60;;;2.45;;
63087;SDS011;49173;43.164;27.786;2023-07-31T15:02:27;4.68;;;2.80;;
63087;SDS011;49173;43.164;27.786;2023-07-31T15:04:58;6.53;;;2.55;;